sensor_id;sensor_type;location;lat;lon;timestamp;P1;durP1;ratioP1;P2;durP2;ratioP2
46491;SDS011;32206;51.446;6.792;2022-08-19T00:01:54;5.85;;;3.78;;
46491;SDS011;32206;51.446;6.792;2022-08-19T00:04:22;4.18;;;3.55;;
46491;SDS011;32206;51.446;6.792;2022-08-19T00:06:50;4.30;;;3.88;;
46491;SDS011;32206;51.446;6.792;2022-08-19T00:09:17;7.38;;;3.95;;
46491;SDS011;32206;51.446;6.792;2022-08-19T00:11:45;7.72;;;3.92;;
46491;SDS011;32206;51.446;6.792;2022-08-19T00:14:12;7.05;;;3.58;;
46491;SDS011;32206;51.446;6.792;2022-08-19T00:16:41;7.60;;;3.60;;
46491;SDS011;32206;51.446;6.792;2022-08-19T00:19:08;6.10;;;3.70;;
46491;SDS011;32206;51.446;6.792;2022-08-19T00:21:34;7.20;;;3.72;;
46491;SDS011;32206;51.446;6.792;2022-08-19T00:24:05;6.45;;;3.95;;
46491;SDS011;32206;51.446;6.792;2022-08-19T00:26:32;4.63;;;3.90;;
46491;SDS011;32206;51.446;6.792;2022-08-19T00:28:58;9.93;;;3.85;;
46491;SDS011;32206;51.446;6.792;2022-08-19T00:31:24;5.38;;;3.55;;
46491;SDS011;32206;51.446;6.792;2022-08-19T00:33:53;5.05;;;3.28;;
46491;SDS011;32206;51.446;6.792;2022-08-19T00:36:19;10.23;;;3.60;;
46491;SDS011;32206;51.446;6.792;2022-08-19T00:38:45;6.07;;;3.88;;
46491;SDS011;32206;51.446;6.792;2022-08-19T00:41:15;6.80;;;3.83;;
46491;SDS011;32206;51.446;6.792;2022-08-19T00:43:42;8.23;;;3.88;;
46491;SDS011;32206;51.446;6.792;2022-08-19T00:46:08;5.15;;;3.55;;
46491;SDS011;32206;51.446;6.792;2022-08-19T00:48:35;8.57;;;3.95;;
46491;SDS011;32206;51.446;6.792;2022-08-19T00:51:01;5.32;;;3.97;;
46491;SDS011;32206;51.446;6.792;2022-08-19T00:53:28;4.95;;;4.15;;
46491;SDS011;32206;51.446;6.792;2022-08-19T00:55:56;6.68;;;3.90;;
46491;SDS011;32206;51.446;6.792;2022-08-19T00:58:26;4.72;;;3.92;;
46491;SDS011;32206;51.446;6.792;2022-08-19T01:00:53;6.85;;;3.83;;
46491;SDS011;32206;51.446;6.792;2022-08-19T01:03:20;9.65;;;4.65;;
46491;SDS011;32206;51.446;6.792;2022-08-19T01:05:47;8.27;;;4.18;;
46491;SDS011;32206;51.446;6.792;2022-08-19T01:08:14;5.50;;;4.45;;
46491;SDS011;32206;51.446;6.792;2022-08-19T01:10:43;6.03;;;4.60;;
46491;SDS011;32206;51.446;6.792;2022-08-19T01:13:13;4.88;;;4.38;;
46491;SDS011;32206;51.446;6.792;2022-08-19T01:15:42;4.20;;;3.80;;
46491;SDS011;32206;51.446;6.792;2022-08-19T01:18:12;4.75;;;4.25;;
46491;SDS011;32206;51.446;6.792;2022-08-19T01:20:40;4.90;;;4.45;;
46491;SDS011;32206;51.446;6.792;2022-08-19T01:23:06;4.00;;;3.70;;
46491;SDS011;32206;51.446;6.792;2022-08-19T01:25:35;5.25;;;4.35;;
46491;SDS011;32206;51.446;6.792;2022-08-19T01:28:14;4.70;;;3.53;;
46491;SDS011;32206;51.446;6.792;2022-08-19T01:30:46;6.60;;;3.75;;
46491;SDS011;32206;51.446;6.792;2022-08-19T01:33:13;4.82;;;4.32;;
46491;SDS011;32206;51.446;6.792;2022-08-19T01:35:40;5.03;;;3.85;;
46491;SDS011;32206;51.446;6.792;2022-08-19T01:38:07;4.45;;;3.60;;
46491;SDS011;32206;51.446;6.792;2022-08-19T01:40:43;5.97;;;4.07;;
46491;SDS011;32206;51.446;6.792;2022-08-19T01:43:09;7.97;;;4.88;;
46491;SDS011;32206;51.446;6.792;2022-08-19T01:45:35;6.55;;;3.97;;
46491;SDS011;32206;51.446;6.792;2022-08-19T01:48:05;5.53;;;3.97;;
46491;SDS011;32206;51.446;6.792;2022-08-19T01:50:32;4.70;;;3.95;;
46491;SDS011;32206;51.446;6.792;2022-08-19T01:52:59;4.15;;;3.55;;
46491;SDS011;32206;51.446;6.792;2022-08-19T01:55:26;4.80;;;4.40;;
46491;SDS011;32206;51.446;6.792;2022-08-19T01:57:54;5.43;;;3.92;;
46491;SDS011;32206;51.446;6.792;2022-08-19T02:00:23;5.35;;;4.30;;
46491;SDS011;32206;51.446;6.792;2022-08-19T02:02:52;5.13;;;4.22;;
46491;SDS011;32206;51.446;6.792;2022-08-19T02:05:17;6.93;;;4.25;;
46491;SDS011;32206;51.446;6.792;2022-08-19T02:07:45;5.82;;;4.90;;
46491;SDS011;32206;51.446;6.792;2022-08-19T02:10:13;5.15;;;4.68;;
46491;SDS011;32206;51.446;6.792;2022-08-19T02:12:41;5.90;;;4.97;;
46491;SDS011;32206;51.446;6.792;2022-08-19T02:15:06;4.65;;;4.35;;
46491;SDS011;32206;51.446;6.792;2022-08-19T02:17:32;4.75;;;4.30;;
46491;SDS011;32206;51.446;6.792;2022-08-19T02:19:58;7.25;;;4.55;;
46491;SDS011;32206;51.446;6.792;2022-08-19T02:22:24;5.15;;;4.75;;
46491;SDS011;32206;51.446;6.792;2022-08-19T02:24:54;7.85;;;4.88;;
46491;SDS011;32206;51.446;6.792;2022-08-19T02:27:20;5.60;;;5.20;;
46491;SDS011;32206;51.446;6.792;2022-08-19T02:29:47;6.60;;;4.97;;
46491;SDS011;32206;51.446;6.792;2022-08-19T02:32:15;5.28;;;4.78;;
46491;SDS011;32206;51.446;6.792;2022-08-19T02:34:41;8.38;;;4.63;;
46491;SDS011;32206;51.446;6.792;2022-08-19T02:37:07;8.23;;;5.10;;
46491;SDS011;32206;51.446;6.792;2022-08-19T02:39:55;5.55;;;5.00;;
46491;SDS011;32206;51.446;6.792;2022-08-19T02:42:21;5.15;;;4.65;;
46491;SDS011;32206;51.446;6.792;2022-08-19T02:44:47;5.13;;;4.63;;
46491;SDS011;32206;51.446;6.792;2022-08-19T02:47:12;6.07;;;4.50;;
46491;SDS011;32206;51.446;6.792;2022-08-19T02:49:40;5.63;;;4.40;;
46491;SDS011;32206;51.446;6.792;2022-08-19T02:52:05;5.28;;;4.78;;
46491;SDS011;32206;51.446;6.792;2022-08-19T02:54:31;6.53;;;4.60;;
46491;SDS011;32206;51.446;6.792;2022-08-19T02:56:57;6.43;;;4.90;;
46491;SDS011;32206;51.446;6.792;2022-08-19T02:59:23;4.80;;;4.40;;
46491;SDS011;32206;51.446;6.792;2022-08-19T03:01:51;6.30;;;4.82;;
46491;SDS011;32206;51.446;6.792;2022-08-19T03:04:17;5.80;;;5.20;;
46491;SDS011;32206;51.446;6.792;2022-08-19T03:06:45;5.60;;;4.88;;
46491;SDS011;32206;51.446;6.792;2022-08-19T03:09:12;5.25;;;4.70;;
46491;SDS011;32206;51.446;6.792;2022-08-19T03:11:38;6.53;;;5.10;;
46491;SDS011;32206;51.446;6.792;2022-08-19T03:14:04;7.13;;;3.78;;
46491;SDS011;32206;51.446;6.792;2022-08-19T03:16:33;5.20;;;4.65;;
46491;SDS011;32206;51.446;6.792;2022-08-19T03:19:09;6.82;;;4.70;;
46491;SDS011;32206;51.446;6.792;2022-08-19T03:21:35;5.78;;;4.45;;
46491;SDS011;32206;51.446;6.792;2022-08-19T03:24:02;5.20;;;4.80;;
46491;SDS011;32206;51.446;6.792;2022-08-19T03:26:31;6.97;;;4.30;;
46491;SDS011;32206;51.446;6.792;2022-08-19T03:29:01;6.25;;;4.85;;
46491;SDS011;32206;51.446;6.792;2022-08-19T03:31:28;10.18;;;5.10;;
46491;SDS011;32206;51.446;6.792;2022-08-19T03:33:55;7.40;;;5.20;;
46491;SDS011;32206;51.446;6.792;2022-08-19T03:36:22;6.55;;;5.43;;
46491;SDS011;32206;51.446;6.792;2022-08-19T03:38:50;6.38;;;5.57;;
46491;SDS011;32206;51.446;6.792;2022-08-19T03:41:20;5.85;;;5.35;;
46491;SDS011;32206;51.446;6.792;2022-08-19T03:43:48;8.52;;;6.18;;
46491;SDS011;32206;51.446;6.792;2022-08-19T03:46:15;6.00;;;5.22;;
46491;SDS011;32206;51.446;6.792;2022-08-19T03:48:45;6.82;;;6.07;;
46491;SDS011;32206;51.446;6.792;2022-08-19T03:51:23;9.07;;;5.35;;
46491;SDS011;32206;51.446;6.792;2022-08-19T03:53:52;8.60;;;6.07;;
46491;SDS011;32206;51.446;6.792;2022-08-19T03:56:18;6.80;;;6.13;;
46491;SDS011;32206;51.446;6.792;2022-08-19T03:58:44;7.35;;;5.20;;
46491;SDS011;32206;51.446;6.792;2022-08-19T04:01:11;6.15;;;5.55;;
46491;SDS011;32206;51.446;6.792;2022-08-19T04:03:39;7.00;;;5.60;;
46491;SDS011;32206;51.446;6.792;2022-08-19T04:06:12;5.45;;;5.05;;
46491;SDS011;32206;51.446;6.792;2022-08-19T04:08:40;7.53;;;5.18;;
46491;SDS011;32206;51.446;6.792;2022-08-19T04:11:13;5.93;;;5.38;;
46491;SDS011;32206;51.446;6.792;2022-08-19T04:13:41;8.90;;;6.25;;
46491;SDS011;32206;51.446;6.792;2022-08-19T04:16:09;7.13;;;6.43;;
46491;SDS011;32206;51.446;6.792;2022-08-19T04:18:36;9.57;;;6.18;;
46491;SDS011;32206;51.446;6.792;2022-08-19T04:21:03;8.15;;;5.53;;
46491;SDS011;32206;51.446;6.792;2022-08-19T04:23:30;8.15;;;6.30;;
46491;SDS011;32206;51.446;6.792;2022-08-19T04:25:56;6.22;;;5.72;;
46491;SDS011;32206;51.446;6.792;2022-08-19T04:28:22;6.20;;;5.68;;
46491;SDS011;32206;51.446;6.792;2022-08-19T04:30:50;13.20;;;7.53;;
46491;SDS011;32206;51.446;6.792;2022-08-19T04:33:18;10.70;;;7.38;;
46491;SDS011;32206;51.446;6.792;2022-08-19T04:35:46;7.43;;;6.53;;
46491;SDS011;32206;51.446;6.792;2022-08-19T04:38:13;8.50;;;6.40;;
46491;SDS011;32206;51.446;6.792;2022-08-19T04:40:41;9.43;;;6.88;;
46491;SDS011;32206;51.446;6.792;2022-08-19T04:43:27;10.88;;;8.13;;
46491;SDS011;32206;51.446;6.792;2022-08-19T04:45:53;9.98;;;7.80;;
46491;SDS011;32206;51.446;6.792;2022-08-19T04:48:19;8.40;;;7.60;;
46491;SDS011;32206;51.446;6.792;2022-08-19T04:50:50;9.77;;;7.40;;
46491;SDS011;32206;51.446;6.792;2022-08-19T04:53:22;8.30;;;7.53;;
46491;SDS011;32206;51.446;6.792;2022-08-19T04:55:50;10.07;;;8.52;;
46491;SDS011;32206;51.446;6.792;2022-08-19T04:58:16;10.07;;;8.73;;
46491;SDS011;32206;51.446;6.792;2022-08-19T05:00:42;11.52;;;9.07;;
46491;SDS011;32206;51.446;6.792;2022-08-19T05:03:08;11.45;;;8.45;;
46491;SDS011;32206;51.446;6.792;2022-08-19T05:05:38;10.18;;;9.23;;
46491;SDS011;32206;51.446;6.792;2022-08-19T05:08:05;13.68;;;9.35;;
46491;SDS011;32206;51.446;6.792;2022-08-19T05:10:34;10.60;;;9.27;;
46491;SDS011;32206;51.446;6.792;2022-08-19T05:13:01;11.10;;;9.27;;
46491;SDS011;32206;51.446;6.792;2022-08-19T05:15:27;11.85;;;10.65;;
46491;SDS011;32206;51.446;6.792;2022-08-19T05:17:53;12.98;;;10.07;;
46491;SDS011;32206;51.446;6.792;2022-08-19T05:20:37;12.48;;;10.30;;
46491;SDS011;32206;51.446;6.792;2022-08-19T05:23:22;24.97;;;12.20;;
46491;SDS011;32206;51.446;6.792;2022-08-19T05:25:48;15.82;;;11.50;;
46491;SDS011;32206;51.446;6.792;2022-08-19T05:28:15;15.85;;;11.02;;
46491;SDS011;32206;51.446;6.792;2022-08-19T05:30:41;13.27;;;11.38;;
46491;SDS011;32206;51.446;6.792;2022-08-19T05:33:09;15.48;;;11.40;;
46491;SDS011;32206;51.446;6.792;2022-08-19T05:35:37;34.50;;;12.68;;
46491;SDS011;32206;51.446;6.792;2022-08-19T05:38:04;13.32;;;11.90;;
46491;SDS011;32206;51.446;6.792;2022-08-19T05:40:33;18.60;;;12.65;;
46491;SDS011;32206;51.446;6.792;2022-08-19T05:43:04;19.63;;;13.65;;
46491;SDS011;32206;51.446;6.792;2022-08-19T05:45:30;16.38;;;13.02;;
46491;SDS011;32206;51.446;6.792;2022-08-19T05:47:56;22.65;;;16.90;;
46491;SDS011;32206;51.446;6.792;2022-08-19T05:50:23;19.88;;;14.65;;
46491;SDS011;32206;51.446;6.792;2022-08-19T05:52:50;23.45;;;15.60;;
46491;SDS011;32206;51.446;6.792;2022-08-19T05:55:15;16.35;;;14.65;;
46491;SDS011;32206;51.446;6.792;2022-08-19T05:57:41;27.05;;;15.77;;
46491;SDS011;32206;51.446;6.792;2022-08-19T06:00:07;22.30;;;16.77;;
46491;SDS011;32206;51.446;6.792;2022-08-19T06:02:35;18.70;;;15.88;;
46491;SDS011;32206;51.446;6.792;2022-08-19T06:05:02;28.75;;;16.73;;
46491;SDS011;32206;51.446;6.792;2022-08-19T06:07:28;22.77;;;16.17;;
46491;SDS011;32206;51.446;6.792;2022-08-19T06:09:54;23.67;;;16.70;;
46491;SDS011;32206;51.446;6.792;2022-08-19T06:12:20;27.88;;;21.08;;
46491;SDS011;32206;51.446;6.792;2022-08-19T06:14:55;26.15;;;19.77;;
46491;SDS011;32206;51.446;6.792;2022-08-19T06:17:21;23.83;;;20.00;;
46491;SDS011;32206;51.446;6.792;2022-08-19T06:19:49;26.65;;;19.85;;
46491;SDS011;32206;51.446;6.792;2022-08-19T06:22:15;25.02;;;20.45;;
46491;SDS011;32206;51.446;6.792;2022-08-19T06:24:41;26.45;;;20.55;;
46491;SDS011;32206;51.446;6.792;2022-08-19T06:27:07;24.20;;;19.65;;
46491;SDS011;32206;51.446;6.792;2022-08-19T06:29:33;29.25;;;21.40;;
46491;SDS011;32206;51.446;6.792;2022-08-19T06:32:00;26.63;;;20.52;;
46491;SDS011;32206;51.446;6.792;2022-08-19T06:34:28;32.45;;;23.10;;
46491;SDS011;32206;51.446;6.792;2022-08-19T06:36:56;28.95;;;23.00;;
46491;SDS011;32206;51.446;6.792;2022-08-19T06:39:27;32.88;;;25.17;;
46491;SDS011;32206;51.446;6.792;2022-08-19T06:41:56;38.15;;;26.33;;
46491;SDS011;32206;51.446;6.792;2022-08-19T06:44:25;34.25;;;24.65;;
46491;SDS011;32206;51.446;6.792;2022-08-19T06:46:54;32.00;;;24.55;;
46491;SDS011;32206;51.446;6.792;2022-08-19T06:49:20;43.10;;;28.30;;
46491;SDS011;32206;51.446;6.792;2022-08-19T06:51:47;39.70;;;27.88;;
46491;SDS011;32206;51.446;6.792;2022-08-19T06:54:14;35.13;;;26.95;;
46491;SDS011;32206;51.446;6.792;2022-08-19T06:56:41;44.75;;;29.55;;
46491;SDS011;32206;51.446;6.792;2022-08-19T06:59:12;39.47;;;29.60;;
46491;SDS011;32206;51.446;6.792;2022-08-19T07:01:41;44.75;;;32.72;;
46491;SDS011;32206;51.446;6.792;2022-08-19T07:04:12;41.22;;;30.73;;
46491;SDS011;32206;51.446;6.792;2022-08-19T07:06:40;38.70;;;32.78;;
46491;SDS011;32206;51.446;6.792;2022-08-19T07:09:07;43.67;;;34.65;;
46491;SDS011;32206;51.446;6.792;2022-08-19T07:11:33;48.67;;;34.65;;
46491;SDS011;32206;51.446;6.792;2022-08-19T07:14:00;43.78;;;34.88;;
46491;SDS011;32206;51.446;6.792;2022-08-19T07:16:26;48.70;;;34.50;;
46491;SDS011;32206;51.446;6.792;2022-08-19T07:18:53;46.25;;;34.92;;
46491;SDS011;32206;51.446;6.792;2022-08-19T07:21:20;44.80;;;33.63;;
46491;SDS011;32206;51.446;6.792;2022-08-19T07:23:49;44.75;;;33.60;;
46491;SDS011;32206;51.446;6.792;2022-08-19T07:26:39;37.92;;;30.48;;
46491;SDS011;32206;51.446;6.792;2022-08-19T07:29:06;38.25;;;31.23;;
46491;SDS011;32206;51.446;6.792;2022-08-19T07:31:32;39.42;;;31.35;;
46491;SDS011;32206;51.446;6.792;2022-08-19T07:34:02;35.92;;;30.63;;
46491;SDS011;32206;51.446;6.792;2022-08-19T07:36:33;49.95;;;34.00;;
46491;SDS011;32206;51.446;6.792;2022-08-19T07:39:05;49.03;;;32.20;;
46491;SDS011;32206;51.446;6.792;2022-08-19T07:41:34;38.83;;;29.88;;
46491;SDS011;32206;51.446;6.792;2022-08-19T07:44:02;43.15;;;30.02;;
46491;SDS011;32206;51.446;6.792;2022-08-19T07:46:30;37.88;;;28.92;;
46491;SDS011;32206;51.446;6.792;2022-08-19T07:48:56;36.45;;;28.83;;
46491;SDS011;32206;51.446;6.792;2022-08-19T07:51:23;37.97;;;27.50;;
46491;SDS011;32206;51.446;6.792;2022-08-19T07:53:49;35.33;;;27.38;;
46491;SDS011;32206;51.446;6.792;2022-08-19T07:56:16;36.42;;;26.65;;
46491;SDS011;32206;51.446;6.792;2022-08-19T07:58:44;38.85;;;26.10;;
46491;SDS011;32206;51.446;6.792;2022-08-19T08:01:13;36.67;;;26.30;;
46491;SDS011;32206;51.446;6.792;2022-08-19T08:03:41;33.88;;;25.90;;
46491;SDS011;32206;51.446;6.792;2022-08-19T08:06:25;30.50;;;23.63;;
46491;SDS011;32206;51.446;6.792;2022-08-19T08:09:10;29.75;;;23.75;;
46491;SDS011;32206;51.446;6.792;2022-08-19T08:11:37;33.22;;;24.45;;
46491;SDS011;32206;51.446;6.792;2022-08-19T08:14:14;34.25;;;24.55;;
46491;SDS011;32206;51.446;6.792;2022-08-19T08:16:55;26.52;;;22.15;;
46491;SDS011;32206;51.446;6.792;2022-08-19T08:19:22;25.25;;;18.88;;
46491;SDS011;32206;51.446;6.792;2022-08-19T08:21:50;23.92;;;18.50;;
46491;SDS011;32206;51.446;6.792;2022-08-19T08:24:16;25.13;;;18.02;;
46491;SDS011;32206;51.446;6.792;2022-08-19T08:26:42;23.55;;;17.02;;
46491;SDS011;32206;51.446;6.792;2022-08-19T08:29:09;23.40;;;15.52;;
46491;SDS011;32206;51.446;6.792;2022-08-19T08:31:36;20.17;;;15.15;;
46491;SDS011;32206;51.446;6.792;2022-08-19T08:34:02;15.90;;;13.40;;
46491;SDS011;32206;51.446;6.792;2022-08-19T08:36:28;17.58;;;12.35;;
46491;SDS011;32206;51.446;6.792;2022-08-19T08:38:54;13.95;;;10.75;;
46491;SDS011;32206;51.446;6.792;2022-08-19T08:44:02;19.35;;;15.25;;
46491;SDS011;32206;51.446;6.792;2022-08-19T08:51:43;18.75;;;12.80;;
46491;SDS011;32206;51.446;6.792;2022-08-19T08:54:13;17.42;;;11.82;;
46491;SDS011;32206;51.446;6.792;2022-08-19T08:56:42;15.93;;;13.60;;
46491;SDS011;32206;51.446;6.792;2022-08-19T08:59:12;17.05;;;12.45;;
46491;SDS011;32206;51.446;6.792;2022-08-19T09:01:45;17.73;;;12.90;;
46491;SDS011;32206;51.446;6.792;2022-08-19T09:04:11;18.52;;;13.20;;
46491;SDS011;32206;51.446;6.792;2022-08-19T09:06:52;16.02;;;12.15;;
46491;SDS011;32206;51.446;6.792;2022-08-19T09:09:27;14.65;;;11.43;;
46491;SDS011;32206;51.446;6.792;2022-08-19T09:15:04;23.00;;;14.23;;
46491;SDS011;32206;51.446;6.792;2022-08-19T09:17:35;19.17;;;13.38;;
46491;SDS011;32206;51.446;6.792;2022-08-19T09:22:41;16.10;;;13.32;;
46491;SDS011;32206;51.446;6.792;2022-08-19T09:25:09;16.80;;;13.25;;
46491;SDS011;32206;51.446;6.792;2022-08-19T09:27:37;16.08;;;13.55;;
46491;SDS011;32206;51.446;6.792;2022-08-19T09:30:04;22.45;;;14.43;;
46491;SDS011;32206;51.446;6.792;2022-08-19T09:32:32;22.85;;;17.73;;
46491;SDS011;32206;51.446;6.792;2022-08-19T09:34:58;20.45;;;13.85;;
46491;SDS011;32206;51.446;6.792;2022-08-19T09:37:25;26.98;;;16.00;;
46491;SDS011;32206;51.446;6.792;2022-08-19T09:39:51;19.73;;;14.93;;
46491;SDS011;32206;51.446;6.792;2022-08-19T09:42:17;19.20;;;15.23;;
46491;SDS011;32206;51.446;6.792;2022-08-19T09:44:43;20.27;;;15.05;;
46491;SDS011;32206;51.446;6.792;2022-08-19T09:47:09;21.45;;;16.92;;
46491;SDS011;32206;51.446;6.792;2022-08-19T09:49:37;21.42;;;15.35;;
46491;SDS011;32206;51.446;6.792;2022-08-19T09:52:03;26.17;;;18.80;;
46491;SDS011;32206;51.446;6.792;2022-08-19T09:54:30;20.00;;;16.20;;
46491;SDS011;32206;51.446;6.792;2022-08-19T09:56:57;21.05;;;17.25;;
46491;SDS011;32206;51.446;6.792;2022-08-19T09:59:25;21.50;;;16.40;;
46491;SDS011;32206;51.446;6.792;2022-08-19T10:01:51;22.88;;;17.33;;
46491;SDS011;32206;51.446;6.792;2022-08-19T10:04:18;24.63;;;16.88;;
46491;SDS011;32206;51.446;6.792;2022-08-19T10:06:46;19.60;;;15.27;;
46491;SDS011;32206;51.446;6.792;2022-08-19T10:09:13;21.90;;;17.75;;
46491;SDS011;32206;51.446;6.792;2022-08-19T10:11:42;18.83;;;13.55;;
46491;SDS011;32206;51.446;6.792;2022-08-19T10:14:13;22.65;;;16.67;;
46491;SDS011;32206;51.446;6.792;2022-08-19T10:16:40;24.83;;;16.38;;
46491;SDS011;32206;51.446;6.792;2022-08-19T10:19:07;23.00;;;16.00;;
46491;SDS011;32206;51.446;6.792;2022-08-19T10:21:34;20.25;;;15.35;;
46491;SDS011;32206;51.446;6.792;2022-08-19T10:24:01;19.92;;;15.18;;
46491;SDS011;32206;51.446;6.792;2022-08-19T10:26:30;22.38;;;14.88;;
46491;SDS011;32206;51.446;6.792;2022-08-19T10:28:59;18.55;;;14.48;;
46491;SDS011;32206;51.446;6.792;2022-08-19T10:31:29;20.63;;;14.13;;
46491;SDS011;32206;51.446;6.792;2022-08-19T10:33:56;13.13;;;11.82;;
46491;SDS011;32206;51.446;6.792;2022-08-19T10:36:33;13.88;;;12.40;;
46491;SDS011;32206;51.446;6.792;2022-08-19T10:39:01;18.02;;;11.77;;
46491;SDS011;32206;51.446;6.792;2022-08-19T10:41:31;13.30;;;11.95;;
46491;SDS011;32206;51.446;6.792;2022-08-19T10:44:00;15.20;;;13.60;;
46491;SDS011;32206;51.446;6.792;2022-08-19T10:46:28;18.85;;;13.63;;
46491;SDS011;32206;51.446;6.792;2022-08-19T10:48:57;12.57;;;10.00;;
46491;SDS011;32206;51.446;6.792;2022-08-19T10:51:23;14.25;;;10.40;;
46491;SDS011;32206;51.446;6.792;2022-08-19T10:54:08;13.82;;;10.55;;
46491;SDS011;32206;51.446;6.792;2022-08-19T10:56:34;12.35;;;10.13;;
46491;SDS011;32206;51.446;6.792;2022-08-19T10:59:20;14.63;;;9.65;;
46491;SDS011;32206;51.446;6.792;2022-08-19T11:01:47;11.88;;;9.75;;
46491;SDS011;32206;51.446;6.792;2022-08-19T11:04:15;12.10;;;9.13;;
46491;SDS011;32206;51.446;6.792;2022-08-19T11:06:46;13.20;;;8.23;;
46491;SDS011;32206;51.446;6.792;2022-08-19T11:09:14;8.40;;;7.47;;
46491;SDS011;32206;51.446;6.792;2022-08-19T11:11:42;14.70;;;9.85;;
46491;SDS011;32206;51.446;6.792;2022-08-19T11:14:13;11.50;;;8.32;;
46491;SDS011;32206;51.446;6.792;2022-08-19T11:16:40;10.40;;;8.70;;
46491;SDS011;32206;51.446;6.792;2022-08-19T11:19:07;15.50;;;9.88;;
46491;SDS011;32206;51.446;6.792;2022-08-19T11:21:44;10.07;;;8.25;;
46491;SDS011;32206;51.446;6.792;2022-08-19T11:24:17;8.77;;;7.57;;
46491;SDS011;32206;51.446;6.792;2022-08-19T11:26:45;7.57;;;6.93;;
46491;SDS011;32206;51.446;6.792;2022-08-19T11:29:13;8.07;;;6.30;;
46491;SDS011;32206;51.446;6.792;2022-08-19T11:31:42;7.65;;;6.80;;
46491;SDS011;32206;51.446;6.792;2022-08-19T11:34:11;12.27;;;7.35;;
46491;SDS011;32206;51.446;6.792;2022-08-19T11:36:42;8.13;;;6.90;;
46491;SDS011;32206;51.446;6.792;2022-08-19T11:39:10;10.52;;;6.10;;
46491;SDS011;32206;51.446;6.792;2022-08-19T11:41:37;9.77;;;7.45;;
46491;SDS011;32206;51.446;6.792;2022-08-19T11:44:03;10.05;;;7.28;;
46491;SDS011;32206;51.446;6.792;2022-08-19T11:46:30;10.07;;;6.30;;
46491;SDS011;32206;51.446;6.792;2022-08-19T11:48:57;6.35;;;4.55;;
46491;SDS011;32206;51.446;6.792;2022-08-19T11:51:24;13.15;;;5.28;;
46491;SDS011;32206;51.446;6.792;2022-08-19T11:53:51;5.57;;;5.03;;
46491;SDS011;32206;51.446;6.792;2022-08-19T11:56:18;8.75;;;6.43;;
46491;SDS011;32206;51.446;6.792;2022-08-19T11:58:45;6.68;;;4.70;;
46491;SDS011;32206;51.446;6.792;2022-08-19T12:01:12;6.55;;;4.60;;
46491;SDS011;32206;51.446;6.792;2022-08-19T12:03:41;10.77;;;4.70;;
46491;SDS011;32206;51.446;6.792;2022-08-19T12:06:09;9.63;;;4.88;;
46491;SDS011;32206;51.446;6.792;2022-08-19T12:08:40;5.95;;;4.13;;
46491;SDS011;32206;51.446;6.792;2022-08-19T12:11:07;4.15;;;3.85;;
46491;SDS011;32206;51.446;6.792;2022-08-19T12:13:34;3.63;;;3.33;;
46491;SDS011;32206;51.446;6.792;2022-08-19T12:16:06;10.40;;;5.15;;
46491;SDS011;32206;51.446;6.792;2022-08-19T12:18:36;6.75;;;4.45;;
46491;SDS011;32206;51.446;6.792;2022-08-19T12:21:02;5.95;;;4.03;;
46491;SDS011;32206;51.446;6.792;2022-08-19T12:23:28;9.27;;;5.13;;
46491;SDS011;32206;51.446;6.792;2022-08-19T12:25:54;6.53;;;4.72;;
46491;SDS011;32206;51.446;6.792;2022-08-19T12:28:22;6.43;;;5.05;;
46491;SDS011;32206;51.446;6.792;2022-08-19T12:30:49;4.88;;;4.10;;
46491;SDS011;32206;51.446;6.792;2022-08-19T12:33:16;4.55;;;3.42;;
46491;SDS011;32206;51.446;6.792;2022-08-19T12:35:44;3.83;;;3.47;;
46491;SDS011;32206;51.446;6.792;2022-08-19T12:38:12;5.90;;;3.90;;
46491;SDS011;32206;51.446;6.792;2022-08-19T12:40:38;4.72;;;3.42;;
46491;SDS011;32206;51.446;6.792;2022-08-19T12:43:05;4.07;;;3.65;;
46491;SDS011;32206;51.446;6.792;2022-08-19T12:45:32;3.85;;;3.35;;
46491;SDS011;32206;51.446;6.792;2022-08-19T12:47:59;3.97;;;3.03;;
46491;SDS011;32206;51.446;6.792;2022-08-19T12:50:24;10.52;;;3.83;;
46491;SDS011;32206;51.446;6.792;2022-08-19T12:52:50;6.00;;;3.25;;
46491;SDS011;32206;51.446;6.792;2022-08-19T12:55:16;5.32;;;2.22;;
46491;SDS011;32206;51.446;6.792;2022-08-19T12:57:44;3.10;;;2.85;;
46491;SDS011;32206;51.446;6.792;2022-08-19T13:00:11;6.18;;;2.85;;
46491;SDS011;32206;51.446;6.792;2022-08-19T13:02:40;2.88;;;2.67;;
46491;SDS011;32206;51.446;6.792;2022-08-19T13:05:10;2.70;;;2.50;;
46491;SDS011;32206;51.446;6.792;2022-08-19T13:07:38;7.97;;;3.03;;
46491;SDS011;32206;51.446;6.792;2022-08-19T13:10:08;7.30;;;2.90;;
46491;SDS011;32206;51.446;6.792;2022-08-19T13:12:36;5.88;;;2.85;;
46491;SDS011;32206;51.446;6.792;2022-08-19T13:15:02;9.90;;;2.90;;
46491;SDS011;32206;51.446;6.792;2022-08-19T13:17:35;3.13;;;2.58;;
46491;SDS011;32206;51.446;6.792;2022-08-19T13:20:01;4.88;;;2.20;;
46491;SDS011;32206;51.446;6.792;2022-08-19T13:22:28;7.03;;;3.10;;
46491;SDS011;32206;51.446;6.792;2022-08-19T13:24:53;2.80;;;2.35;;
46491;SDS011;32206;51.446;6.792;2022-08-19T13:27:19;5.95;;;2.30;;
46491;SDS011;32206;51.446;6.792;2022-08-19T13:29:44;4.75;;;2.97;;
46491;SDS011;32206;51.446;6.792;2022-08-19T13:32:29;6.50;;;2.58;;
46491;SDS011;32206;51.446;6.792;2022-08-19T13:35:13;5.60;;;3.63;;
46491;SDS011;32206;51.446;6.792;2022-08-19T13:37:40;9.30;;;3.20;;
46491;SDS011;32206;51.446;6.792;2022-08-19T13:42:38;3.90;;;2.90;;
46491;SDS011;32206;51.446;6.792;2022-08-19T13:45:05;3.63;;;2.30;;
46491;SDS011;32206;51.446;6.792;2022-08-19T13:47:32;11.48;;;2.47;;
46491;SDS011;32206;51.446;6.792;2022-08-19T13:50:07;3.78;;;2.65;;
46491;SDS011;32206;51.446;6.792;2022-08-19T13:52:38;6.15;;;3.83;;
46491;SDS011;32206;51.446;6.792;2022-08-19T13:55:05;5.07;;;2.47;;
46491;SDS011;32206;51.446;6.792;2022-08-19T13:57:31;4.30;;;2.70;;
46491;SDS011;32206;51.446;6.792;2022-08-19T13:59:57;4.55;;;2.45;;
46491;SDS011;32206;51.446;6.792;2022-08-19T14:02:23;6.75;;;3.22;;
46491;SDS011;32206;51.446;6.792;2022-08-19T14:04:49;4.22;;;2.97;;
46491;SDS011;32206;51.446;6.792;2022-08-19T14:07:15;6.97;;;3.25;;
46491;SDS011;32206;51.446;6.792;2022-08-19T14:09:40;4.00;;;3.03;;
46491;SDS011;32206;51.446;6.792;2022-08-19T14:12:06;5.57;;;3.20;;
46491;SDS011;32206;51.446;6.792;2022-08-19T14:14:36;3.90;;;3.60;;
46491;SDS011;32206;51.446;6.792;2022-08-19T14:17:05;3.72;;;3.40;;
46491;SDS011;32206;51.446;6.792;2022-08-19T14:19:31;6.47;;;3.63;;
46491;SDS011;32206;51.446;6.792;2022-08-19T14:21:57;3.97;;;2.97;;
46491;SDS011;32206;51.446;6.792;2022-08-19T14:24:22;4.47;;;3.55;;
46491;SDS011;32206;51.446;6.792;2022-08-19T14:26:48;5.22;;;3.50;;
46491;SDS011;32206;51.446;6.792;2022-08-19T14:29:14;6.32;;;3.85;;
46491;SDS011;32206;51.446;6.792;2022-08-19T14:31:39;7.85;;;4.22;;
46491;SDS011;32206;51.446;6.792;2022-08-19T14:34:05;4.72;;;3.65;;
46491;SDS011;32206;51.446;6.792;2022-08-19T14:36:31;7.68;;;3.60;;
46491;SDS011;32206;51.446;6.792;2022-08-19T14:38:59;5.85;;;3.30;;
46491;SDS011;32206;51.446;6.792;2022-08-19T14:41:26;5.88;;;3.20;;
46491;SDS011;32206;51.446;6.792;2022-08-19T14:43:52;6.63;;;3.35;;
46491;SDS011;32206;51.446;6.792;2022-08-19T14:46:22;9.52;;;2.97;;
46491;SDS011;32206;51.446;6.792;2022-08-19T14:48:50;6.07;;;2.42;;
46491;SDS011;32206;51.446;6.792;2022-08-19T14:51:16;7.15;;;2.95;;
46491;SDS011;32206;51.446;6.792;2022-08-19T14:53:44;6.82;;;2.90;;
46491;SDS011;32206;51.446;6.792;2022-08-19T14:56:11;2.78;;;2.20;;
46491;SDS011;32206;51.446;6.792;2022-08-19T14:58:39;4.03;;;2.03;;